RYR869U LZIB-LGKR
Flight info
| Callsign | RYR869U |
|---|---|
| Flight time | N/A |
| Altitude | 37000 |
| Route | VAMOG DCT SIRDU DCT KOPRY DCT LURID DCT RODON DCT LIMJA N732 PITAS |
| Aircraft | B738/M-SDE2E3FGHIRWXY/LB1 |
Departure
| Time | N/A |
|---|---|
| Airport | M. R. Štefánik Airport (LZIB) |
Arrival
| Time | 2026-05-07 18:40 |
|---|---|
| Airport | Corfu Ioannis Kapodistrias International Airport (LGKR) |
| Time | Latitude | Longitude | Altitude | Speed | Heading |
|---|---|---|---|---|---|
| 2026-05-07 17:42 | 44.53424 | 17.69215 | 37033 ft | 432 kts | 167° |
| 2026-05-07 17:42 | 44.47729 | 17.71961 | 37021 ft | 434 kts | 167° |
| 2026-05-07 17:43 | 44.42015 | 17.74711 | 37021 ft | 434 kts | 166° |
| 2026-05-07 17:43 | 44.36301 | 17.77455 | 37021 ft | 434 kts | 166° |
| 2026-05-07 17:44 | 44.30582 | 17.80197 | 37041 ft | 435 kts | 166° |
| 2026-05-07 17:44 | 44.24852 | 17.82937 | 37042 ft | 436 kts | 166° |
| 2026-05-07 17:45 | 44.19106 | 17.85681 | 37031 ft | 436 kts | 166° |
| 2026-05-07 17:45 | 44.13368 | 17.88415 | 37047 ft | 436 kts | 166° |
| 2026-05-07 17:46 | 44.07629 | 17.91142 | 37046 ft | 436 kts | 166° |
| 2026-05-07 17:46 | 44.01883 | 17.93867 | 37048 ft | 436 kts | 166° |
| 2026-05-07 17:47 | 43.96142 | 17.96586 | 37039 ft | 436 kts | 166° |
| 2026-05-07 17:47 | 43.90398 | 17.99298 | 37052 ft | 436 kts | 166° |
| 2026-05-07 17:48 | 43.84657 | 18.02003 | 37043 ft | 435 kts | 166° |
| 2026-05-07 17:48 | 43.78933 | 18.04697 | 37049 ft | 435 kts | 166° |
| 2026-05-07 17:49 | 43.73208 | 18.07386 | 37056 ft | 434 kts | 166° |
| 2026-05-07 17:49 | 43.67524 | 18.10050 | 37058 ft | 434 kts | 167° |
| 2026-05-07 17:50 | 43.61792 | 18.12730 | 37049 ft | 435 kts | 167° |
| 2026-05-07 17:50 | 43.56056 | 18.15406 | 37055 ft | 435 kts | 167° |
| 2026-05-07 17:51 | 43.50312 | 18.18083 | 37065 ft | 436 kts | 167° |
| 2026-05-07 17:51 | 43.44557 | 18.20757 | 37057 ft | 437 kts | 167° |
| 2026-05-07 17:52 | 43.38793 | 18.23427 | 37056 ft | 437 kts | 167° |
| 2026-05-07 17:52 | 43.33031 | 18.26097 | 37062 ft | 437 kts | 167° |
| 2026-05-07 17:53 | 43.27265 | 18.28762 | 37067 ft | 437 kts | 167° |
| 2026-05-07 17:53 | 43.21491 | 18.31425 | 37072 ft | 438 kts | 167° |
| 2026-05-07 17:54 | 43.15713 | 18.34085 | 37069 ft | 439 kts | 167° |
| 2026-05-07 17:54 | 43.09921 | 18.36745 | 37074 ft | 439 kts | 168° |
| 2026-05-07 17:55 | 43.04122 | 18.39403 | 37081 ft | 440 kts | 168° |
| 2026-05-07 17:55 | 42.98310 | 18.42061 | 37073 ft | 441 kts | 168° |
| 2026-05-07 17:56 | 42.92486 | 18.44720 | 37079 ft | 442 kts | 168° |
| 2026-05-07 17:56 | 42.86634 | 18.47384 | 37074 ft | 444 kts | 168° |
| 2026-05-07 17:57 | 42.81758 | 18.49600 | 37076 ft | 445 kts | 168° |
| 2026-05-07 17:57 | 42.74877 | 18.52725 | 37071 ft | 446 kts | 168° |
| 2026-05-07 17:58 | 42.68985 | 18.55394 | 37074 ft | 447 kts | 168° |
| 2026-05-07 17:58 | 42.63085 | 18.58062 | 37065 ft | 447 kts | 168° |
| 2026-05-07 17:59 | 42.57186 | 18.60723 | 37070 ft | 447 kts | 168° |
| 2026-05-07 17:59 | 42.51280 | 18.63381 | 37071 ft | 447 kts | 169° |
| 2026-05-07 18:00 | 42.45381 | 18.66031 | 37081 ft | 447 kts | 169° |
| 2026-05-07 18:00 | 42.39480 | 18.68677 | 37075 ft | 447 kts | 169° |
| 2026-05-07 18:01 | 42.33570 | 18.71320 | 37071 ft | 448 kts | 169° |
| 2026-05-07 18:01 | 42.27646 | 18.73967 | 37071 ft | 449 kts | 169° |
| 2026-05-07 18:02 | 42.18743 | 18.77939 | 37075 ft | 450 kts | 169° |
| 2026-05-07 18:03 | 42.12800 | 18.80583 | 37074 ft | 450 kts | 169° |
| 2026-05-07 18:03 | 42.06895 | 18.83199 | 37070 ft | 449 kts | 170° |
| 2026-05-07 18:04 | 42.00960 | 18.85824 | 37068 ft | 450 kts | 173° |
| 2026-05-07 18:04 | 41.95016 | 18.88448 | 37057 ft | 450 kts | 174° |
| 2026-05-07 18:05 | 41.89016 | 18.91085 | 37090 ft | 459 kts | 174° |
| 2026-05-07 18:05 | 41.82903 | 18.93775 | 37074 ft | 464 kts | 173° |
| 2026-05-07 18:06 | 41.76764 | 18.96474 | 37077 ft | 466 kts | 174° |
| 2026-05-07 18:06 | 41.70591 | 18.99181 | 37078 ft | 467 kts | 174° |
| 2026-05-07 18:07 | 41.64416 | 19.01890 | 37070 ft | 466 kts | 174° |
| 2026-05-07 18:07 | 41.58334 | 19.04558 | 37059 ft | 455 kts | 174° |
| 2026-05-07 18:08 | 41.52300 | 19.07174 | 37079 ft | 457 kts | 174° |
| 2026-05-07 18:08 | 41.46244 | 19.09802 | 37078 ft | 458 kts | 174° |
| 2026-05-07 18:09 | 41.40192 | 19.12635 | 37079 ft | 463 kts | 171° |
| 2026-05-07 18:09 | 41.34124 | 19.15651 | 37079 ft | 467 kts | 171° |
| 2026-05-07 18:10 | 41.29058 | 19.18161 | 37079 ft | 467 kts | 171° |
| 2026-05-07 18:10 | 41.22953 | 19.21151 | 37071 ft | 468 kts | 171° |
| 2026-05-07 18:11 | 41.16836 | 19.24127 | 37077 ft | 469 kts | 171° |
| 2026-05-07 18:11 | 41.09706 | 19.27582 | 36891 ft | 472 kts | 171° |
| 2026-05-07 18:11 | 41.06614 | 19.29076 | 36420 ft | 472 kts | 171° |
| 2026-05-07 18:12 | 41.04531 | 19.30085 | 36091 ft | 471 kts | 171° |
| 2026-05-07 18:12 | 41.01457 | 19.31574 | 35541 ft | 470 kts | 171° |
| 2026-05-07 18:12 | 40.98386 | 19.33057 | 34972 ft | 470 kts | 170° |
| 2026-05-07 18:12 | 40.95311 | 19.34539 | 34382 ft | 470 kts | 170° |
| 2026-05-07 18:13 | 40.92239 | 19.36021 | 33784 ft | 470 kts | 169° |
| 2026-05-07 18:13 | 40.89164 | 19.37501 | 33169 ft | 471 kts | 169° |
| 2026-05-07 18:13 | 40.86081 | 19.38982 | 32535 ft | 472 kts | 169° |
| 2026-05-07 18:13 | 40.82995 | 19.40463 | 31886 ft | 472 kts | 168° |
| 2026-05-07 18:14 | 40.79904 | 19.41946 | 31333 ft | 471 kts | 167° |
| 2026-05-07 18:14 | 40.76842 | 19.43418 | 30859 ft | 467 kts | 166° |
| 2026-05-07 18:14 | 40.73799 | 19.44878 | 30390 ft | 464 kts | 166° |
| 2026-05-07 18:14 | 40.70816 | 19.46307 | 29923 ft | 461 kts | 165° |
| 2026-05-07 18:15 | 40.67778 | 19.47759 | 29442 ft | 457 kts | 165° |
| 2026-05-07 18:15 | 40.64839 | 19.49163 | 28969 ft | 454 kts | 165° |
| 2026-05-07 18:15 | 40.61884 | 19.50573 | 28479 ft | 450 kts | 165° |
| 2026-05-07 18:15 | 40.58952 | 19.51971 | 27994 ft | 447 kts | 165° |
| 2026-05-07 18:16 | 40.56036 | 19.53360 | 27496 ft | 444 kts | 165° |
| 2026-05-07 18:16 | 40.53139 | 19.54735 | 26968 ft | 441 kts | 164° |
| 2026-05-07 18:16 | 40.50268 | 19.56097 | 26489 ft | 437 kts | 164° |
| 2026-05-07 18:16 | 40.47414 | 19.57449 | 26014 ft | 434 kts | 164° |
| 2026-05-07 18:17 | 40.44584 | 19.58788 | 25536 ft | 430 kts | 164° |
| 2026-05-07 18:17 | 40.41779 | 19.60114 | 25071 ft | 427 kts | 164° |
| 2026-05-07 18:17 | 40.39000 | 19.61428 | 24595 ft | 423 kts | 163° |
| 2026-05-07 18:17 | 40.36243 | 19.62730 | 24129 ft | 419 kts | 163° |
| 2026-05-07 18:18 | 40.33509 | 19.64019 | 23663 ft | 416 kts | 163° |
| 2026-05-07 18:18 | 40.30800 | 19.65296 | 23198 ft | 412 kts | 163° |
| 2026-05-07 18:18 | 40.28114 | 19.66561 | 22734 ft | 408 kts | 163° |
| 2026-05-07 18:18 | 40.25458 | 19.67811 | 22281 ft | 404 kts | 164° |
| 2026-05-07 18:19 | 40.22819 | 19.69051 | 21819 ft | 401 kts | 164° |
| 2026-05-07 18:19 | 40.20209 | 19.70278 | 21363 ft | 397 kts | 164° |
| 2026-05-07 18:19 | 40.17618 | 19.71494 | 20908 ft | 394 kts | 163° |
| 2026-05-07 18:19 | 40.15053 | 19.72698 | 20461 ft | 390 kts | 164° |
| 2026-05-07 18:20 | 40.12510 | 19.73890 | 20006 ft | 386 kts | 164° |
| 2026-05-07 18:20 | 40.09993 | 19.75070 | 19569 ft | 383 kts | 164° |
| 2026-05-07 18:20 | 40.07493 | 19.76240 | 19126 ft | 380 kts | 164° |
| 2026-05-07 18:20 | 40.05013 | 19.77399 | 18679 ft | 377 kts | 165° |
| 2026-05-07 18:21 | 40.02555 | 19.78547 | 18241 ft | 374 kts | 165° |
| 2026-05-07 18:21 | 40.00115 | 19.79686 | 17805 ft | 370 kts | 165° |
| 2026-05-07 18:21 | 39.97701 | 19.80813 | 17375 ft | 367 kts | 165° |
| 2026-05-07 18:21 | 39.95332 | 19.81920 | 16936 ft | 355 kts | 165° |
| 2026-05-07 18:22 | 39.93045 | 19.82988 | 16534 ft | 343 kts | 165° |
| 2026-05-07 18:22 | 39.91574 | 19.83675 | 16274 ft | 336 kts | 165° |
| 2026-05-07 18:22 | 39.88673 | 19.84931 | 15800 ft | 317 kts | 175° |
| 2026-05-07 18:22 | 39.86594 | 19.84740 | 15492 ft | 291 kts | 206° |
| 2026-05-07 18:23 | 39.85080 | 19.83191 | 15311 ft | 273 kts | 239° |
| 2026-05-07 18:23 | 39.84547 | 19.80869 | 15024 ft | 275 kts | 270° |
| 2026-05-07 18:23 | 39.84922 | 19.78439 | 14702 ft | 271 kts | 276° |
| 2026-05-07 18:23 | 39.84900 | 19.76064 | 14333 ft | 258 kts | 252° |
| 2026-05-07 18:24 | 39.84165 | 19.74009 | 14046 ft | 247 kts | 236° |
| 2026-05-07 18:24 | 39.83129 | 19.72245 | 13736 ft | 243 kts | 232° |
| 2026-05-07 18:24 | 39.82106 | 19.70514 | 13419 ft | 239 kts | 232° |
| 2026-05-07 18:24 | 39.81085 | 19.68854 | 13119 ft | 237 kts | 230° |
| 2026-05-07 18:25 | 39.79987 | 19.67217 | 12811 ft | 237 kts | 228° |
| 2026-05-07 18:25 | 39.78844 | 19.65689 | 12507 ft | 235 kts | 224° |
| 2026-05-07 18:25 | 39.77720 | 19.64195 | 12176 ft | 233 kts | 232° |
| 2026-05-07 18:25 | 39.76793 | 19.62471 | 11779 ft | 232 kts | 236° |
| 2026-05-07 18:26 | 39.75921 | 19.60672 | 11546 ft | 232 kts | 237° |
| 2026-05-07 18:26 | 39.75074 | 19.58879 | 11363 ft | 234 kts | 237° |
| 2026-05-07 18:26 | 39.74221 | 19.57062 | 11163 ft | 238 kts | 237° |
| 2026-05-07 18:26 | 39.73351 | 19.55200 | 10896 ft | 243 kts | 237° |
| 2026-05-07 18:27 | 39.72298 | 19.53533 | 10636 ft | 242 kts | 220° |
| 2026-05-07 18:27 | 39.70956 | 19.52266 | 10473 ft | 238 kts | 207° |
| 2026-05-07 18:27 | 39.69412 | 19.51468 | 10387 ft | 236 kts | 198° |
| 2026-05-07 18:27 | 39.67801 | 19.50951 | 10213 ft | 240 kts | 192° |
| 2026-05-07 18:28 | 39.66170 | 19.50607 | 10108 ft | 242 kts | 189° |
| 2026-05-07 18:28 | 39.64486 | 19.50328 | 9929 ft | 248 kts | 188° |
| 2026-05-07 18:28 | 39.62724 | 19.50114 | 9661 ft | 253 kts | 186° |
| 2026-05-07 18:28 | 39.60990 | 19.49995 | 9388 ft | 251 kts | 182° |
| 2026-05-07 18:29 | 39.59246 | 19.49975 | 9116 ft | 251 kts | 179° |
| 2026-05-07 18:29 | 39.57573 | 19.50497 | 8829 ft | 250 kts | 153° |
| 2026-05-07 18:29 | 39.56147 | 19.51789 | 8573 ft | 248 kts | 137° |
| 2026-05-07 18:29 | 39.54971 | 19.53377 | 8350 ft | 248 kts | 135° |
| 2026-05-07 18:30 | 39.53755 | 19.55007 | 8079 ft | 248 kts | 136° |
| 2026-05-07 18:30 | 39.52567 | 19.56577 | 7817 ft | 247 kts | 136° |
| 2026-05-07 18:30 | 39.51344 | 19.58180 | 7565 ft | 247 kts | 136° |
| 2026-05-07 18:30 | 39.50148 | 19.59743 | 7308 ft | 248 kts | 136° |
| 2026-05-07 18:31 | 39.48939 | 19.61331 | 7050 ft | 247 kts | 136° |
| 2026-05-07 18:31 | 39.47731 | 19.62910 | 6789 ft | 247 kts | 136° |
| 2026-05-07 18:31 | 39.46525 | 19.64484 | 6538 ft | 246 kts | 136° |
| 2026-05-07 18:31 | 39.45321 | 19.66054 | 6279 ft | 245 kts | 136° |
| 2026-05-07 18:32 | 39.44122 | 19.67616 | 6023 ft | 244 kts | 136° |
| 2026-05-07 18:32 | 39.42926 | 19.69171 | 5766 ft | 244 kts | 136° |
| 2026-05-07 18:32 | 39.41734 | 19.70719 | 5512 ft | 243 kts | 136° |
| 2026-05-07 18:32 | 39.40552 | 19.72272 | 5253 ft | 242 kts | 131° |
| 2026-05-07 18:33 | 39.39814 | 19.74205 | 5005 ft | 243 kts | 102° |
| 2026-05-07 18:33 | 39.39704 | 19.76339 | 4933 ft | 235 kts | 91° |
| 2026-05-07 18:33 | 39.39749 | 19.78446 | 4834 ft | 233 kts | 90° |
| 2026-05-07 18:33 | 39.39799 | 19.80544 | 4743 ft | 234 kts | 90° |
| 2026-05-07 18:34 | 39.39839 | 19.82656 | 4645 ft | 235 kts | 90° |
| 2026-05-07 18:34 | 39.39873 | 19.84757 | 4551 ft | 231 kts | 90° |
| 2026-05-07 18:34 | 39.39904 | 19.86805 | 4354 ft | 225 kts | 90° |
| 2026-05-07 18:34 | 39.40122 | 19.88772 | 4107 ft | 220 kts | 75° |
| 2026-05-07 18:35 | 39.40580 | 19.90613 | 3887 ft | 211 kts | 74° |
| 2026-05-07 18:35 | 39.41004 | 19.92392 | 3653 ft | 204 kts | 75° |
| 2026-05-07 18:35 | 39.41405 | 19.94117 | 3445 ft | 197 kts | 75° |
| 2026-05-07 18:35 | 39.41835 | 19.95793 | 3242 ft | 197 kts | 64° |
| 2026-05-07 18:36 | 39.42813 | 19.97009 | 3047 ft | 202 kts | 23° |
| 2026-05-07 18:36 | 39.44191 | 19.97117 | 2954 ft | 199 kts | 345° |
| 2026-05-07 18:36 | 39.45483 | 19.96613 | 2799 ft | 193 kts | 344° |
| 2026-05-07 18:36 | 39.46763 | 19.96143 | 2565 ft | 189 kts | 345° |
| 2026-05-07 18:37 | 39.48021 | 19.95676 | 2320 ft | 187 kts | 345° |
| 2026-05-07 18:37 | 39.49261 | 19.95214 | 2072 ft | 184 kts | 345° |
| 2026-05-07 18:37 | 39.50468 | 19.94761 | 1840 ft | 175 kts | 345° |
| 2026-05-07 18:37 | 39.51593 | 19.94312 | 1681 ft | 164 kts | 338° |
| 2026-05-07 18:38 | 39.52560 | 19.93505 | 1361 ft | 168 kts | 324° |
| 2026-05-07 18:38 | 39.53540 | 19.92890 | 1267 ft | 147 kts | 347° |
| 2026-05-07 18:38 | 39.54505 | 19.92655 | 1072 ft | 142 kts | 351° |
| 2026-05-07 18:38 | 39.55481 | 19.92438 | 815 ft | 143 kts | 350° |
| 2026-05-07 18:39 | 39.56436 | 19.92185 | 675 ft | 138 kts | 349° |
| 2026-05-07 18:39 | 39.57373 | 19.91939 | 465 ft | 137 kts | 349° |
| 2026-05-07 18:39 | 39.58301 | 19.91706 | 264 ft | 135 kts | 349° |
| 2026-05-07 18:39 | 39.59221 | 19.91471 | 72 ft | 135 kts | 349° |
| 2026-05-07 18:40 | 39.60083 | 19.91236 | 20 ft | 107 kts | 353° |
| 2026-05-07 18:40 | 39.60604 | 19.91107 | 17 ft | 49 kts | 348° |
| 2026-05-07 18:40 | 39.60868 | 19.91035 | 19 ft | 21 kts | 348° |
| 2026-05-07 18:40 | 39.61000 | 19.91006 | 18 ft | 13 kts | 9° |
| 2026-05-07 18:41 | 39.61040 | 19.91054 | 18 ft | 7 kts | 52° |
| 2026-05-07 18:41 | 39.61056 | 19.91110 | 21 ft | 7 kts | 120° |
| 2026-05-07 18:41 | 39.61009 | 19.91135 | 18 ft | 8 kts | 168° |
| 2026-05-07 18:41 | 39.60948 | 19.91152 | 18 ft | 9 kts | 168° |
| 2026-05-07 18:42 | 39.60885 | 19.91169 | 17 ft | 9 kts | 168° |
| 2026-05-07 18:42 | 39.60825 | 19.91185 | 17 ft | 9 kts | 168° |
| 2026-05-07 18:42 | 39.60766 | 19.91201 | 17 ft | 8 kts | 168° |
| 2026-05-07 18:42 | 39.60729 | 19.91240 | 17 ft | 7 kts | 91° |
| 2026-05-07 18:43 | 39.60737 | 19.91304 | 17 ft | 7 kts | 78° |
| 2026-05-07 18:43 | 39.60743 | 19.91342 | 19 ft | 0 kts | 78° |